Portada
METAR-TAF:

METAR-TAF

Aeropuertos :

Carcasona, Francia

latitud: 43-13N, longitud: 002-19E, altitud: 130 m

Observación

El informe se hizo hace 20 minutos, a las 02:30 UTC
Viento 12 kt del oeste-noroeste
Temperatura 7°C
Humedad 81%
Presión 1025 hPa
Visibilidad 10 km o más
Escasas nubes a una altura de 4800 ft

METAR: LFMK 180230Z AUTO 29012KT 9999 FEW048 07/04 Q1025 NOSIG

Hora: 03:50 (02:50 UTC)

Pronóstico

El informe se hizo hace 50 minutos, a las 02:00 UTC
Pronóstico válido del 18 a las 03 UTC al 19 a las 03 UTC
Viento 15 kt del oeste
Visibilidad 10 km o más
Cielo nuboso a una altura de 5000 ft
Temporalmente
del 18 a las 03 UTC al 18 a las 10 UTC
Cielo nuboso a una altura de 1500 ft
Evolucionando progresivamente
del 18 a las 12 UTC al 18 a las 14 UTC
Visibilidad 10 km o más
sin nubes por debajo de 1500 m y sin presencia de cumulonimbus.

TAF: LFMK 180200Z 1803/1903 28015KT 9999 BKN050 TEMPO 1803/1810 BKN015 BECMG 1812/1814 CAVOK

Observaciones y pronósticos meteorológicos de más de 4000 aeropuertos (mensajes METAR y TAF).

Los puntos amarillos y rojos representan las estaciones disponibles.

Ponga el ratón en el punto deseado para ver el nombre de la estación.

Haga clic para ver las observaciones y los pronósticos meteorológicos.

Para cambiar el mapa : haga clic en los botones verdes con una cruz de color negro para hacer un zoom, en el botón verde con un guión para alejar o en las flechas verdes para mapas adyacentes.


METAR-TAF: